This is the latest recevied weather packets stored in our database for station/object W6UA-13. If no packets are shown the sender has not sent any weather packets the latest 10 day(s).
| Time | Temp. | Humidity | Pressure | Rain* | Wind** | Luminosity | Snow |
|---|---|---|---|---|---|---|---|
| 1777790985 | 13.33° C | 80% | 1012.7 hPa | 0 mm | - | 0 W/m² | - |
| 1777790085 | 12.78° C | 81% | 1012.7 hPa | 0 mm | - | 0 W/m² | - |
| 1777789185 | 12.78° C | 81% | 1012.7 hPa | 0 mm | - | 0 W/m² | - |
| 1777788285 | 12.78° C | 81% | 1012.5 hPa | 0 mm | - | 0 W/m² | - |
| 1777787385 | 12.78° C | 81% | 1012.3 hPa | 0 mm | - | 0 W/m² | - |
| 1777786485 | 12.22° C | 82% | 1012.3 hPa | 0 mm | - | 0 W/m² | - |
| 1777785585 | 12.22° C | 82% | 1012.3 hPa | 0 mm | - | 0 W/m² | - |
| 1777784685 | 12.22° C | 82% | 1012.2 hPa | 0 mm | - | 0 W/m² | - |
| 1777783785 | 12.22° C | 82% | 1012.1 hPa | 0 mm | - | 0 W/m² | - |
| 1777782885 | 12.22° C | 81% | 1012 hPa | 0 mm | - | 0 W/m² | - |
| 1777781985 | 12.78° C | 81% | 1012.1 hPa | 0 mm | - | 0 W/m² | - |
| 1777781085 | 12.78° C | 81% | 1012.1 hPa | 0 mm | - | 0 W/m² | - |
| 1777780185 | 12.78° C | 80% | 1012 hPa | 0 mm | - | 0 W/m² | - |
| 1777779285 | 12.78° C | 79% | 1011.9 hPa | 0 mm | - | 0 W/m² | - |
| 1777778385 | 13.33° C | 79% | 1012 hPa | 0 mm | - | 0 W/m² | - |
| 1777777485 | 13.33° C | 79% | 1011.8 hPa | 0 mm | - | 0 W/m² | - |
| 1777776585 | 13.89° C | 78% | 1011.8 hPa | 0 mm | - | 0 W/m² | - |
| 1777775685 | 13.89° C | 77% | 1011.7 hPa | 0 mm | - | 7 W/m² | - |
| 1777774785 | 14.44° C | 74% | 1012 hPa | 0 mm | - | 23 W/m² | - |
| 1777773885 | 15° C | 72% | 1012.2 hPa | 0 mm | - | 69 W/m² | - |
| 1777772985 | 15.56° C | 70% | 1012.4 hPa | 0 mm | - | 116 W/m² | - |
| 1777772085 | 16.11° C | 68% | 1012.6 hPa | 0 mm | - | 174 W/m² | - |
| 1777771185 | 16.67° C | 67% | 1012.8 hPa | 0 mm | - | 206 W/m² | - |
| 1777770285 | 17.78° C | 65% | 1012.8 hPa | 0 mm | - | 190 W/m² | - |
| 1777769386 | 17.78° C | 64% | 1013.1 hPa | 0 mm | - | 250 W/m² | - |
* Rain latest hour (hover to see other rain measurements)
** Current wind speed in m/s (hover to see current wind gust speed)